Time;durP1;ratioP1;P1;durP2;ratioP2;P2;SDS_P1;SDS_P2;PMS_P1;PMS_P2;Temp;Humidity;BMP_temperature;BMP_pressure;BME280_temperature;BME280_humidity;BME280_pressure;Samples;Min_cycle;Max_cycle;Signal;HPM_P1;HPM_P2
2022/01/11 00:00:35;;;;;;;16.70;6.97;;;2.70;71.90;;;;;;2450266;55;21806;-83
2022/01/11 00:03:03;;;;;;;16.98;7.05;;;2.80;72.00;;;;;;2494849;55;20946;-81
2022/01/11 00:06:24;;;;;;;15.57;7.12;;;2.70;71.90;;;;;;2495194;55;20967;-84
2022/01/11 00:08:53;;;;;;;14.55;6.75;;;2.70;71.90;;;;;;2493253;54;21290;-82
2022/01/11 00:11:20;;;;;;;19.45;7.15;;;2.70;71.80;;;;;;2267037;56;20963;-82
2022/01/11 00:13:46;;;;;;;15.95;7.32;;;2.70;71.70;;;;;;2270844;55;20984;-82
2022/01/11 00:16:13;;;;;;;16.25;6.82;;;2.70;71.70;;;;;;2481382;54;20975;-81
2022/01/11 00:18:39;;;;;;;12.27;5.57;;;2.70;71.70;;;;;;2247458;56;20976;-82
2022/01/11 00:21:05;;;;;;;27.15;6.43;;;2.70;71.70;;;;;;2494497;54;20995;-83
2022/01/11 00:26:19;;;;;;;13.40;5.47;;;2.70;71.50;;;;;;2495525;55;20995;-84
2022/01/11 00:28:45;;;;;;;14.02;7.00;;;2.60;71.20;;;;;;2494345;54;20977;-83
2022/01/11 00:31:11;;;;;;;11.50;6.45;;;2.60;71.20;;;;;;2267383;56;21043;-83
2022/01/11 00:33:43;;;;;;;17.45;7.00;;;2.60;71.30;;;;;;2493491;55;20983;-82
2022/01/11 00:36:11;;;;;;;12.55;6.60;;;2.60;71.30;;;;;;2495241;55;21445;-82
2022/01/11 00:38:38;;;;;;;14.40;7.20;;;2.60;71.30;;;;;;2494658;55;21011;-82
2022/01/11 00:41:09;;;;;;;14.15;6.00;;;2.60;71.30;;;;;;2267271;55;21089;-84
2022/01/11 00:43:36;;;;;;;16.77;6.03;;;2.60;71.20;;;;;;2495095;55;22016;-84
2022/01/11 00:46:03;;;;;;;10.18;5.82;;;2.60;71.00;;;;;;2495105;54;20964;-83
2022/01/11 00:48:29;;;;;;;14.13;6.22;;;2.60;71.00;;;;;;2266834;56;20992;-83
2022/01/11 00:50:56;;;;;;;8.95;4.95;;;2.60;70.90;;;;;;2495204;54;20985;-83
2022/01/11 00:53:24;;;;;;;21.17;5.32;;;2.50;70.70;;;;;;2494812;54;20939;-84
2022/01/11 00:55:50;;;;;;;13.88;5.00;;;2.50;70.50;;;;;;2273028;55;21774;-83
2022/01/11 00:58:16;;;;;;;9.18;4.93;;;2.50;70.60;;;;;;2489500;55;20987;-82
2022/01/11 01:00:43;;;;;;;9.88;5.20;;;2.50;70.50;;;;;;2267103;55;21957;-83
2022/01/11 01:03:09;;;;;;;8.50;5.00;;;2.50;70.40;;;;;;2495050;54;21060;-84
2022/01/11 01:05:35;;;;;;;7.78;4.60;;;2.40;70.20;;;;;;2477879;54;21102;-82
2022/01/11 01:08:02;;;;;;;8.13;4.75;;;2.40;70.20;;;;;;2268544;55;20984;-83
2022/01/11 01:10:36;;;;;;;9.38;5.25;;;2.40;70.10;;;;;;2257170;55;21236;-83
2022/01/11 01:13:07;;;;;;;7.68;4.37;;;2.40;70.00;;;;;;2492428;54;20987;-81
2022/01/11 01:15:34;;;;;;;8.38;4.68;;;2.30;69.80;;;;;;2494819;54;21001;-81
2022/01/11 01:18:01;;;;;;;10.98;4.57;;;2.30;69.80;;;;;;2493963;54;20911;-81
2022/01/11 01:20:27;;;;;;;8.43;4.93;;;2.30;69.90;;;;;;2274049;55;20940;-83
2022/01/11 01:22:54;;;;;;;10.65;5.20;;;2.20;70.00;;;;;;2481616;55;20971;-84
2022/01/11 01:25:21;;;;;;;9.90;5.43;;;2.20;69.90;;;;;;2493123;55;20960;-87
2022/01/11 01:27:47;;;;;;;13.70;5.68;;;2.20;69.80;;;;;;2493185;54;20983;-84
2022/01/11 01:30:15;;;;;;;9.88;5.78;;;2.20;69.90;;;;;;2273355;55;20996;-82
2022/01/11 01:32:41;;;;;;;9.75;5.72;;;2.20;70.00;;;;;;2476848;55;21047;-81
2022/01/11 01:35:08;;;;;;;10.88;5.30;;;2.10;69.90;;;;;;2483954;54;21091;-82
2022/01/11 01:37:34;;;;;;;10.10;5.35;;;2.10;70.00;;;;;;2263181;55;21382;-84
2022/01/11 01:40:00;;;;;;;10.65;5.62;;;2.10;70.00;;;;;;2492322;55;21008;-82
2022/01/11 01:42:30;;;;;;;10.57;4.97;;;2.10;70.00;;;;;;2492825;55;20986;-83
2022/01/11 01:45:00;;;;;;;9.43;5.00;;;2.10;70.00;;;;;;2493683;54;20924;-83
2022/01/11 01:47:26;;;;;;;10.25;5.57;;;2.00;69.90;;;;;;2469938;55;21008;-82
2022/01/11 01:49:52;;;;;;;13.25;4.82;;;2.10;69.90;;;;;;2493690;55;21035;-84
2022/01/11 01:52:19;;;;;;;11.15;4.82;;;2.00;69.90;;;;;;2495182;55;21042;-83
2022/01/11 01:54:45;;;;;;;11.45;4.50;;;2.00;69.90;;;;;;2270655;55;20927;-86
2022/01/11 01:57:11;;;;;;;10.38;5.12;;;2.00;69.90;;;;;;2493987;54;20948;-83
2022/01/11 01:59:38;;;;;;;8.77;4.57;;;1.90;69.90;;;;;;2270252;55;21019;-84
2022/01/11 02:02:07;;;;;;;12.25;4.75;;;1.90;69.90;;;;;;2492257;54;20956;-84
2022/01/11 02:04:34;;;;;;;9.35;4.28;;;1.90;69.90;;;;;;2482322;54;20993;-84
2022/01/11 02:07:00;;;;;;;12.07;4.93;;;1.90;69.80;;;;;;2493043;54;21015;-84
2022/01/11 02:09:26;;;;;;;9.82;4.80;;;1.90;69.70;;;;;;2491274;54;20949;-81
2022/01/11 02:11:53;;;;;;;11.48;5.20;;;1.90;69.80;;;;;;2479197;54;20919;-84
2022/01/11 02:14:19;;;;;;;15.07;5.28;;;1.90;69.90;;;;;;2494911;55;20934;-83
2022/01/11 02:16:45;;;;;;;11.27;4.97;;;1.90;69.90;;;;;;2275896;55;21095;-81
2022/01/11 02:19:11;;;;;;;10.55;4.70;;;1.90;69.90;;;;;;2260262;55;21079;-81
2022/01/11 02:21:38;;;;;;;10.68;4.95;;;1.90;70.00;;;;;;2268938;55;21069;-83
2022/01/11 02:24:04;;;;;;;10.48;4.72;;;1.90;70.20;;;;;;2266094;56;21807;-83
2022/01/11 02:26:31;;;;;;;11.07;5.35;;;1.90;70.20;;;;;;2274098;55;21415;-84
2022/01/11 02:28:57;;;;;;;11.07;4.47;;;1.90;70.20;;;;;;2487478;55;20979;-82
2022/01/11 02:31:23;;;;;;;11.02;4.37;;;1.90;70.30;;;;;;2492301;54;21472;-83
2022/01/11 02:33:56;;;;;;;12.00;4.72;;;1.90;71.00;;;;;;2494269;54;20979;-84
2022/01/11 02:36:27;;;;;;;10.27;4.50;;;1.90;70.30;;;;;;2494019;54;20975;-81
2022/01/11 02:38:54;;;;;;;11.85;4.43;;;1.90;70.30;;;;;;2445848;54;2757217;-82
2022/01/11 02:41:21;;;;;;;10.43;4.57;;;1.90;70.40;;;;;;2270004;55;20952;-83
2022/01/11 02:43:48;;;;;;;10.00;4.37;;;1.90;70.40;;;;;;2494866;55;20956;-83
2022/01/11 02:46:15;;;;;;;9.48;4.57;;;1.90;70.40;;;;;;2274733;55;20992;-84
2022/01/11 02:48:42;;;;;;;8.70;4.57;;;1.90;70.50;;;;;;2264183;56;21577;-85
2022/01/11 02:51:08;;;;;;;11.15;4.12;;;1.90;70.40;;;;;;2267290;55;20951;-84
2022/01/11 02:53:41;;;;;;;6.85;3.47;;;1.90;70.40;;;;;;2493982;55;21444;-83
2022/01/11 02:56:07;;;;;;;8.70;4.10;;;1.90;70.30;;;;;;2495918;54;20920;-83
2022/01/11 02:58:34;;;;;;;9.25;4.47;;;1.90;70.30;;;;;;2259061;55;21033;-85
2022/01/11 03:01:00;;;;;;;9.02;4.00;;;1.90;70.30;;;;;;2468994;55;20995;-82
2022/01/11 03:03:26;;;;;;;8.73;3.80;;;1.90;70.30;;;;;;2489801;54;21010;-85
2022/01/11 03:05:54;;;;;;;8.25;3.50;;;1.90;70.20;;;;;;2269534;55;21557;-85
2022/01/11 03:08:21;;;;;;;10.80;3.92;;;1.90;70.00;;;;;;2493872;55;20931;-85
2022/01/11 03:10:48;;;;;;;8.02;3.78;;;1.90;70.00;;;;;;2266498;55;21011;-82
2022/01/11 03:13:16;;;;;;;9.05;3.95;;;1.90;70.10;;;;;;2269608;55;20952;-85
2022/01/11 03:15:43;;;;;;;7.05;3.33;;;1.90;70.20;;;;;;2494402;55;20931;-83
2022/01/11 03:18:09;;;;;;;12.63;4.12;;;1.90;70.40;;;;;;2266884;56;20979;-84
2022/01/11 03:20:36;;;;;;;8.68;4.35;;;1.90;70.60;;;;;;2267280;56;21051;-84
2022/01/11 03:23:03;;;;;;;13.05;4.28;;;1.90;70.70;;;;;;2494189;54;20968;-84
2022/01/11 03:25:29;;;;;;;7.62;3.55;;;1.90;70.80;;;;;;2494321;54;21019;-82
2022/01/11 03:27:56;;;;;;;9.35;4.45;;;1.90;70.80;;;;;;2491089;54;21099;-84
2022/01/11 03:30:22;;;;;;;8.15;4.30;;;2.00;71.70;;;;;;2263910;55;20955;-85
2022/01/11 03:32:49;;;;;;;8.50;3.87;;;2.00;71.00;;;;;;2488168;54;20958;-84
2022/01/11 03:35:16;;;;;;;12.40;4.87;;;2.00;71.00;;;;;;2495473;54;20939;-84
2022/01/11 03:37:43;;;;;;;11.10;4.28;;;2.00;71.00;;;;;;2265680;55;20999;-84
2022/01/11 03:40:11;;;;;;;9.77;4.15;;;2.10;71.10;;;;;;2494869;55;20947;-83
2022/01/11 03:42:38;;;;;;;13.38;4.35;;;2.10;71.10;;;;;;2274260;55;20956;-82
2022/01/11 03:45:05;;;;;;;11.80;4.05;;;2.10;71.70;;;;;;2481714;55;21000;-83
2022/01/11 03:47:32;;;;;;;23.62;4.85;;;2.10;70.90;;;;;;2494611;54;20969;-84
2022/01/11 03:49:59;;;;;;;19.83;3.83;;;2.10;71.00;;;;;;2493997;54;21019;-84
2022/01/11 03:52:25;;;;;;;18.45;4.10;;;2.10;70.80;;;;;;2494167;55;20981;-86
2022/01/11 03:57:36;;;;;;;7.85;3.45;;;2.10;70.50;;;;;;2468720;55;21321;-83
2022/01/11 04:00:06;;;;;;;9.07;3.30;;;2.10;70.40;;;;;;2494224;55;21003;-82
2022/01/11 04:02:33;;;;;;;9.70;3.35;;;2.10;70.50;;;;;;2272710;55;21886;-82
2022/01/11 04:04:59;;;;;;;14.30;3.92;;;2.00;70.30;;;;;;2482458;54;21007;-83
2022/01/11 04:07:26;;;;;;;12.50;3.85;;;2.10;71.30;;;;;;2269875;55;21063;-84
2022/01/11 04:09:53;;;;;;;11.50;3.62;;;2.10;70.70;;;;;;2266162;55;21886;-82
2022/01/11 04:12:20;;;;;;;12.95;3.95;;;2.10;70.70;;;;;;2495124;54;21023;-83
2022/01/11 04:14:46;;;;;;;13.73;3.92;;;2.10;70.60;;;;;;2493423;54;20935;-83
2022/01/11 04:17:12;;;;;;;8.48;3.60;;;2.10;70.50;;;;;;2494811;55;21035;-82
2022/01/11 04:19:38;;;;;;;17.50;4.00;;;2.10;70.50;;;;;;2269812;55;20948;-84
2022/01/11 04:22:05;;;;;;;12.32;4.07;;;2.10;70.50;;;;;;2266357;55;21024;-84
2022/01/11 04:24:31;;;;;;;9.93;3.03;;;2.20;70.60;;;;;;2494059;55;21082;-83
2022/01/11 04:26:58;;;;;;;7.75;3.15;;;2.10;70.50;;;;;;2494664;55;20963;-82
2022/01/11 04:29:24;;;;;;;15.15;3.97;;;2.20;70.50;;;;;;2493724;55;20941;-84
2022/01/11 04:31:51;;;;;;;12.37;3.20;;;2.20;70.50;;;;;;2494295;54;20960;-83
2022/01/11 04:34:17;;;;;;;8.45;3.22;;;2.10;70.30;;;;;;2494660;55;21003;-83
2022/01/11 04:36:44;;;;;;;10.00;3.33;;;2.10;70.20;;;;;;2494116;55;20987;-82
2022/01/11 04:39:12;;;;;;;11.27;3.80;;;2.00;70.10;;;;;;2493422;54;20928;-83
2022/01/11 04:41:38;;;;;;;8.63;3.62;;;2.10;70.30;;;;;;2493552;54;21434;-85
2022/01/11 04:44:05;;;;;;;11.07;3.40;;;2.10;70.30;;;;;;2494778;54;21498;-84
2022/01/11 04:46:32;;;;;;;13.62;3.35;;;2.10;70.40;;;;;;2482631;54;20996;-84
2022/01/11 04:49:00;;;;;;;21.58;4.00;;;2.10;70.30;;;;;;2478316;54;21093;-84
2022/01/11 04:51:26;;;;;;;14.32;3.62;;;2.10;70.40;;;;;;2258716;55;21435;-86
2022/01/11 04:53:52;;;;;;;15.13;3.55;;;2.10;70.40;;;;;;2494646;55;20940;-83
2022/01/11 04:56:19;;;;;;;8.60;3.10;;;2.20;70.50;;;;;;2494703;55;20915;-86
2022/01/11 04:58:45;;;;;;;16.83;3.75;;;2.10;70.30;;;;;;2494415;54;20932;-84
2022/01/11 05:01:11;;;;;;;9.02;3.58;;;2.10;70.30;;;;;;2247579;56;20956;-83
2022/01/11 05:03:38;;;;;;;14.13;4.05;;;2.10;70.30;;;;;;2494182;54;21037;-84
2022/01/11 05:06:07;;;;;;;7.28;3.40;;;2.20;70.40;;;;;;2493239;54;20995;-83
2022/01/11 05:08:33;;;;;;;6.45;3.20;;;2.20;70.40;;;;;;2493909;55;21047;-83
2022/01/11 05:10:59;;;;;;;10.50;3.20;;;2.20;70.30;;;;;;2266723;56;20951;-83
2022/01/11 05:13:25;;;;;;;8.95;3.12;;;2.20;70.30;;;;;;2495152;54;21009;-83
2022/01/11 05:15:52;;;;;;;6.12;2.83;;;2.20;70.20;;;;;;2270270;55;21032;-83
2022/01/11 05:18:18;;;;;;;9.77;3.40;;;2.20;70.10;;;;;;2493523;54;20992;-83
2022/01/11 05:20:46;;;;;;;14.65;3.25;;;2.10;69.90;;;;;;2495292;54;21923;-81
2022/01/11 05:23:14;;;;;;;10.63;3.08;;;2.10;69.90;;;;;;2493880;54;20971;-82
2022/01/11 05:25:41;;;;;;;12.90;3.35;;;2.10;69.90;;;;;;2494442;54;21001;-84
2022/01/11 05:28:07;;;;;;;6.68;2.95;;;2.10;69.80;;;;;;2270427;55;21032;-83
2022/01/11 05:30:34;;;;;;;8.15;3.80;;;2.10;70.00;;;;;;2271333;55;21011;-84
2022/01/11 05:33:00;;;;;;;13.10;4.35;;;2.10;70.10;;;;;;2267107;55;21338;-85
2022/01/11 05:35:26;;;;;;;7.50;3.80;;;2.10;70.20;;;;;;2495322;55;20979;-83
2022/01/11 05:37:52;;;;;;;9.77;3.78;;;2.20;70.30;;;;;;2494848;55;21094;-84
2022/01/11 05:40:19;;;;;;;9.10;3.65;;;2.10;70.20;;;;;;2494781;55;20927;-81
2022/01/11 05:42:45;;;;;;;9.07;3.78;;;2.20;70.30;;;;;;2274435;55;21016;-85
2022/01/11 05:45:12;;;;;;;8.00;4.05;;;2.20;70.30;;;;;;2265193;55;20931;-84
2022/01/11 05:47:38;;;;;;;7.93;3.85;;;2.10;70.10;;;;;;2266556;55;20938;-85
2022/01/11 05:50:07;;;;;;;20.27;6.20;;;2.20;70.30;;;;;;2493554;54;20955;-87
2022/01/11 05:52:34;;;;;;;13.10;4.85;;;2.20;70.30;;;;;;2495575;54;21020;-84
2022/01/11 05:55:02;;;;;;;10.20;4.45;;;2.10;70.20;;;;;;2482401;54;20934;-83
2022/01/11 05:57:29;;;;;;;8.20;3.65;;;2.10;70.20;;;;;;2267012;55;20935;-85
2022/01/11 05:59:55;;;;;;;10.95;4.03;;;2.20;70.40;;;;;;2495167;55;20923;-83
2022/01/11 06:02:21;;;;;;;7.60;3.65;;;2.10;70.40;;;;;;2267170;56;20991;-84
2022/01/11 06:04:49;;;;;;;14.45;3.75;;;2.20;70.40;;;;;;2469334;54;21012;-84
2022/01/11 06:07:15;;;;;;;9.15;4.20;;;2.20;70.50;;;;;;2492416;54;21034;-84
2022/01/11 06:09:42;;;;;;;10.30;3.78;;;2.20;70.40;;;;;;2269340;55;20935;-84
2022/01/11 06:12:08;;;;;;;6.95;3.25;;;2.20;71.00;;;;;;2494944;54;21835;-85
2022/01/11 06:14:35;;;;;;;8.60;3.22;;;2.20;70.40;;;;;;2271856;55;20963;-83
2022/01/11 06:17:01;;;;;;;12.10;3.67;;;2.20;70.40;;;;;;2266580;55;20942;-84
2022/01/11 06:19:28;;;;;;;7.40;3.55;;;2.20;70.20;;;;;;2493311;54;21498;-81
2022/01/11 06:21:54;;;;;;;9.57;3.20;;;2.20;69.90;;;;;;2493885;54;20944;-85
2022/01/11 06:24:20;;;;;;;8.02;3.47;;;2.20;69.70;;;;;;2270679;55;20947;-82
2022/01/11 06:26:47;;;;;;;9.50;3.95;;;2.10;69.50;;;;;;2257922;55;20995;-84
2022/01/11 06:29:13;;;;;;;7.25;3.10;;;2.10;69.70;;;;;;2472029;54;20924;-83
2022/01/11 06:31:39;;;;;;;7.80;3.78;;;2.10;69.90;;;;;;2495236;54;20960;-84
2022/01/11 06:34:05;;;;;;;11.77;3.78;;;2.10;70.00;;;;;;2489300;54;20916;-85
2022/01/11 06:36:32;;;;;;;13.52;3.45;;;2.10;70.10;;;;;;2264462;55;20992;-84
2022/01/11 06:38:58;;;;;;;10.23;3.97;;;2.10;70.10;;;;;;2482093;54;20995;-83
2022/01/11 06:41:24;;;;;;;12.37;5.00;;;2.10;70.10;;;;;;2475716;54;21050;-84
2022/01/11 06:43:52;;;;;;;9.32;4.05;;;2.10;69.90;;;;;;2269044;55;20933;-84
2022/01/11 06:46:18;;;;;;;11.02;3.87;;;2.10;69.90;;;;;;2493909;55;20939;-85
2022/01/11 06:48:44;;;;;;;11.30;4.10;;;2.10;69.90;;;;;;2494090;55;20946;-86
2022/01/11 06:51:12;;;;;;;11.63;4.60;;;2.10;70.00;;;;;;2494642;54;20972;-84
2022/01/11 06:53:38;;;;;;;10.45;4.25;;;2.10;70.20;;;;;;2486881;55;20927;-83
2022/01/11 06:56:04;;;;;;;7.90;3.75;;;2.10;70.30;;;;;;2495055;55;20975;-82
2022/01/11 06:58:31;;;;;;;8.88;4.37;;;2.10;71.10;;;;;;2494609;54;21060;-83
2022/01/11 07:00:57;;;;;;;8.00;3.53;;;2.10;70.40;;;;;;2474455;54;20996;-84
2022/01/11 07:03:24;;;;;;;9.38;3.55;;;2.10;70.50;;;;;;2494329;55;20952;-83
2022/01/11 07:05:50;;;;;;;15.55;4.07;;;2.10;70.50;;;;;;2494491;55;21249;-83
2022/01/11 07:08:17;;;;;;;7.75;3.67;;;2.10;70.60;;;;;;2494693;55;21067;-83
2022/01/11 07:10:43;;;;;;;9.48;4.07;;;2.20;71.50;;;;;;2492787;55;21739;-82
2022/01/11 07:13:09;;;;;;;8.02;3.40;;;2.20;70.80;;;;;;2265733;55;20947;-83
2022/01/11 07:15:36;;;;;;;8.90;3.78;;;2.20;70.80;;;;;;2494426;55;21454;-84
2022/01/11 07:18:08;;;;;;;12.98;4.20;;;2.20;70.80;;;;;;2489468;54;20992;-84
2022/01/11 07:20:34;;;;;;;15.60;4.47;;;2.30;70.90;;;;;;2494159;54;20932;-82
2022/01/11 07:23:00;;;;;;;12.68;4.35;;;2.30;70.90;;;;;;2268294;55;21936;-82
2022/01/11 07:25:30;;;;;;;10.23;4.43;;;2.30;70.90;;;;;;2264849;55;20980;-83
2022/01/11 07:27:57;;;;;;;14.30;4.85;;;2.30;70.90;;;;;;2267867;55;21008;-82
2022/01/11 07:30:24;;;;;;;12.48;5.50;;;2.30;70.80;;;;;;2491201;54;21513;-83
2022/01/11 07:32:50;;;;;;;12.23;4.78;;;2.30;70.60;;;;;;2489732;54;21013;-85
2022/01/11 07:35:16;;;;;;;12.45;5.07;;;2.30;70.60;;;;;;2264646;55;20964;-85
2022/01/11 07:37:43;;;;;;;12.93;4.53;;;2.30;70.70;;;;;;2468370;54;21422;-86
2022/01/11 07:40:10;;;;;;;12.80;5.03;;;2.30;70.60;;;;;;2267021;55;21441;-85
2022/01/11 07:42:37;;;;;;;8.80;4.45;;;2.40;70.70;;;;;;2474283;54;21364;-86
2022/01/11 07:45:04;;;;;;;11.63;4.45;;;2.30;70.60;;;;;;2480795;54;20957;-83
2022/01/11 07:47:30;;;;;;;10.65;4.25;;;2.40;70.70;;;;;;2489342;54;21479;-83
2022/01/11 07:49:57;;;;;;;11.80;4.55;;;2.40;70.70;;;;;;2472878;54;20931;-84
2022/01/11 07:52:23;;;;;;;11.55;4.43;;;2.40;70.70;;;;;;2492792;54;20976;-85
2022/01/11 07:54:53;;;;;;;9.45;4.28;;;2.40;70.70;;;;;;2494114;55;21862;-85
2022/01/11 07:57:19;;;;;;;8.65;4.03;;;2.40;70.70;;;;;;2268583;56;21689;-84
2022/01/11 07:59:45;;;;;;;9.55;4.53;;;2.40;70.60;;;;;;2265292;55;20948;-85
2022/01/11 08:02:19;;;;;;;10.68;5.28;;;2.20;70.50;;;;;;2492862;54;20952;-85
2022/01/11 08:04:45;;;;;;;10.70;5.40;;;2.40;70.70;;;;;;2494243;54;20962;-85
2022/01/11 08:07:12;;;;;;;10.23;4.93;;;2.40;70.60;;;;;;2269115;55;21034;-86
2022/01/11 08:09:38;;;;;;;12.95;6.05;;;2.40;70.60;;;;;;2268887;55;20993;-85
2022/01/11 08:12:06;;;;;;;9.20;4.30;;;2.40;70.60;;;;;;2491034;54;20983;-84
2022/01/11 08:14:32;;;;;;;10.10;4.62;;;2.50;70.70;;;;;;2490629;54;20942;-85
2022/01/11 08:16:58;;;;;;;10.55;4.93;;;2.50;70.70;;;;;;2266808;55;21314;-87
2022/01/11 08:19:28;;;;;;;10.60;4.87;;;2.50;70.70;;;;;;2489980;55;20955;-85
2022/01/11 08:21:55;;;;;;;9.63;4.57;;;2.50;70.60;;;;;;2489431;55;20951;-85
2022/01/11 08:24:22;;;;;;;11.43;4.55;;;2.50;70.70;;;;;;2491149;54;20924;-84
2022/01/11 08:26:49;;;;;;;11.60;4.93;;;2.50;70.70;;;;;;2244092;55;20963;-84
2022/01/11 08:29:18;;;;;;;8.80;4.12;;;2.50;70.70;;;;;;2486938;55;20935;-84
2022/01/11 08:31:47;;;;;;;9.68;4.07;;;2.50;70.70;;;;;;2490048;55;21990;-81
2022/01/11 08:34:14;;;;;;;11.55;4.70;;;2.60;71.00;;;;;;2265417;55;20925;-84
2022/01/11 08:36:42;;;;;;;18.20;5.37;;;2.60;71.00;;;;;;2262139;55;22165;-83
2022/01/11 08:39:08;;;;;;;10.60;5.05;;;2.60;71.00;;;;;;2262441;55;21011;-83
2022/01/11 08:41:35;;;;;;;12.48;5.55;;;2.60;71.00;;;;;;2267047;55;21008;-84
2022/01/11 08:44:01;;;;;;;9.32;4.30;;;2.50;70.70;;;;;;2488862;55;21011;-82
2022/01/11 08:46:28;;;;;;;13.75;5.20;;;2.70;71.00;;;;;;2261754;55;20980;-84
2022/01/11 08:48:54;;;;;;;11.07;4.95;;;2.70;71.00;;;;;;2489891;55;20959;-85
2022/01/11 08:51:21;;;;;;;11.38;5.30;;;2.70;70.90;;;;;;2490486;55;21023;-83
2022/01/11 08:53:47;;;;;;;10.27;4.85;;;2.70;70.90;;;;;;2490075;55;21078;-83
2022/01/11 08:56:17;;;;;;;13.93;4.82;;;2.70;70.90;;;;;;2489636;54;21327;-82
2022/01/11 08:58:46;;;;;;;11.65;5.40;;;2.70;71.00;;;;;;2466625;55;20947;-83
2022/01/11 09:01:12;;;;;;;10.30;4.72;;;2.80;71.20;;;;;;2492137;55;21232;-84
2022/01/11 09:03:39;;;;;;;11.93;5.15;;;2.80;71.20;;;;;;2267567;55;20925;-84
2022/01/11 09:06:08;;;;;;;12.23;5.03;;;2.80;71.20;;;;;;2246341;56;21505;-85
2022/01/11 09:08:35;;;;;;;11.65;5.28;;;2.80;71.20;;;;;;2263620;56;20940;-84
2022/01/11 09:11:04;;;;;;;17.17;6.25;;;2.90;71.20;;;;;;2491774;55;21008;-84
2022/01/11 09:13:31;;;;;;;11.32;5.32;;;2.90;71.40;;;;;;2489859;55;21073;-82
2022/01/11 09:15:57;;;;;;;15.45;5.95;;;2.80;71.30;;;;;;2261264;56;21130;-84
2022/01/11 09:18:23;;;;;;;10.43;5.18;;;3.00;71.50;;;;;;2261269;55;21572;-82
2022/01/11 09:20:50;;;;;;;10.98;5.00;;;3.00;71.30;;;;;;2489871;55;20932;-83
2022/01/11 09:23:16;;;;;;;11.50;4.62;;;3.00;71.30;;;;;;2489799;55;20980;-83
2022/01/11 09:25:45;;;;;;;13.07;5.45;;;3.10;71.50;;;;;;2493497;55;20978;-84
2022/01/11 09:28:12;;;;;;;9.88;4.05;;;3.10;72.00;;;;;;2273017;55;20912;-84
2022/01/11 09:30:38;;;;;;;9.07;4.00;;;3.10;71.70;;;;;;2494674;54;20961;-83
2022/01/11 09:33:06;;;;;;;9.82;4.57;;;3.20;71.60;;;;;;2266396;55;20987;-87
2022/01/11 09:35:32;;;;;;;9.80;4.75;;;3.20;71.90;;;;;;2490553;55;20971;-84
2022/01/11 09:37:59;;;;;;;11.10;5.37;;;3.30;71.90;;;;;;2264412;55;20983;-84
2022/01/11 09:40:26;;;;;;;11.48;5.57;;;3.30;71.80;;;;;;2490533;55;20942;-86
2022/01/11 09:42:53;;;;;;;8.70;4.70;;;3.40;71.80;;;;;;2490864;55;21062;-83
2022/01/11 09:45:21;;;;;;;9.18;4.60;;;3.40;71.80;;;;;;2263846;55;21059;-83
2022/01/11 09:47:47;;;;;;;9.95;4.93;;;3.50;71.90;;;;;;2489772;54;21000;-83
2022/01/11 09:50:14;;;;;;;9.77;4.78;;;3.50;71.70;;;;;;2482845;54;21015;-83
2022/01/11 09:52:41;;;;;;;9.65;4.65;;;3.60;71.40;;;;;;2243664;55;21039;-83
2022/01/11 09:55:08;;;;;;;9.82;4.65;;;3.60;71.20;;;;;;2490087;54;20941;-82
2022/01/11 09:57:34;;;;;;;9.52;4.40;;;3.60;71.20;;;;;;2488636;55;20939;-83
2022/01/11 10:00:03;;;;;;;10.73;4.87;;;3.60;71.30;;;;;;2489515;54;20952;-82
2022/01/11 10:02:29;;;;;;;11.02;5.57;;;3.60;71.50;;;;;;2261554;55;20972;-83
2022/01/11 10:05:01;;;;;;;10.90;5.72;;;3.70;71.60;;;;;;2266301;55;21561;-84
2022/01/11 10:07:32;;;;;;;10.70;5.50;;;3.70;71.80;;;;;;2472775;54;20915;-83
2022/01/11 10:09:58;;;;;;;12.37;5.40;;;3.80;71.80;;;;;;2479701;55;20939;-84
2022/01/11 10:12:26;;;;;;;11.20;5.57;;;3.80;71.80;;;;;;2262786;56;20992;-84
2022/01/11 10:14:54;;;;;;;11.20;5.72;;;3.90;72.00;;;;;;2266646;55;20947;-83
2022/01/11 10:17:22;;;;;;;14.25;6.57;;;3.90;72.10;;;;;;2263160;55;20998;-82
2022/01/11 10:19:50;;;;;;;12.75;5.90;;;4.00;72.10;;;;;;2251613;55;20998;-83
2022/01/11 10:22:24;;;;;;;11.05;5.68;;;4.00;72.10;;;;;;2488829;55;20942;-84
2022/01/11 10:24:52;;;;;;;13.43;6.00;;;4.10;71.90;;;;;;2488316;54;21060;-83
2022/01/11 10:27:36;;;;;;;14.05;6.30;;;4.10;71.80;;;;;;2470081;54;21007;-83
2022/01/11 10:30:14;;;;;;;12.25;5.93;;;4.20;71.70;;;;;;2489671;55;20943;-84
2022/01/11 10:32:45;;;;;;;14.48;6.47;;;4.20;71.80;;;;;;2489470;55;20920;-84
2022/01/11 10:35:25;;;;;;;14.05;7.10;;;4.30;71.90;;;;;;2269772;55;21303;-82
2022/01/11 10:38:03;;;;;;;14.02;7.10;;;4.40;72.00;;;;;;2249008;55;20983;-83
2022/01/11 10:40:47;;;;;;;15.02;7.18;;;4.40;72.10;;;;;;2267772;55;20937;-83
2022/01/11 10:43:15;;;;;;;13.90;6.60;;;4.50;72.40;;;;;;2483372;54;20927;-82
2022/01/11 10:45:43;;;;;;;14.93;7.05;;;4.50;72.70;;;;;;2262300;56;20987;-82
2022/01/11 10:48:14;;;;;;;14.27;6.85;;;4.60;73.10;;;;;;2488565;54;20976;-83
2022/01/11 10:50:42;;;;;;;14.93;7.45;;;4.70;73.30;;;;;;2491095;55;21044;-84
2022/01/11 10:53:18;;;;;;;15.45;7.75;;;4.80;74.30;;;;;;2262225;55;21058;-83
2022/01/11 10:55:48;;;;;;;15.45;7.78;;;4.90;73.90;;;;;;2490179;55;21350;-85
2022/01/11 10:58:36;;;;;;;15.80;7.55;;;5.00;74.00;;;;;;2262616;55;20952;-81
2022/01/11 11:01:03;;;;;;;13.00;6.75;;;5.10;74.20;;;;;;2487655;55;20928;-80
2022/01/11 11:03:31;;;;;;;14.95;8.07;;;5.20;74.10;;;;;;2259227;56;20935;-81
2022/01/11 11:06:11;;;;;;;15.95;7.37;;;5.30;73.90;;;;;;2487328;55;21055;-82
2022/01/11 11:08:41;;;;;;;11.77;6.65;;;5.40;73.50;;;;;;2259184;55;21007;-80
2022/01/11 11:11:12;;;;;;;14.43;7.68;;;5.40;73.60;;;;;;2263601;55;20974;-81
2022/01/11 11:13:42;;;;;;;13.18;7.03;;;5.50;73.50;;;;;;2256926;55;21042;-80
2022/01/11 11:16:20;;;;;;;13.95;7.53;;;5.60;73.10;;;;;;2487014;54;21028;-81
2022/01/11 11:18:48;;;;;;;12.40;7.18;;;5.60;72.60;;;;;;2243020;55;21014;-81
2022/01/11 11:21:23;;;;;;;11.15;6.80;;;5.60;72.40;;;;;;2486342;54;21372;-80
2022/01/11 11:23:55;;;;;;;11.60;6.45;;;5.60;72.20;;;;;;2460113;55;20939;-81
2022/01/11 11:26:22;;;;;;;12.57;7.15;;;5.60;71.70;;;;;;2242484;55;21522;-79
2022/01/11 11:28:49;;;;;;;19.45;10.30;;;5.60;71.60;;;;;;2260730;55;21122;-81
2022/01/11 11:31:15;;;;;;;16.73;8.75;;;5.60;71.70;;;;;;2472790;54;21790;-81
2022/01/11 11:33:42;;;;;;;17.40;9.43;;;5.60;71.50;;;;;;2469605;54;20975;-80
2022/01/11 11:36:11;;;;;;;23.77;11.95;;;5.60;71.70;;;;;;2486014;55;20952;-80
2022/01/11 11:38:43;;;;;;;23.48;10.98;;;5.60;72.00;;;;;;2253292;55;21848;-81
2022/01/11 11:41:09;;;;;;;17.95;9.68;;;5.60;71.70;;;;;;2460232;54;21665;-81
2022/01/11 11:43:37;;;;;;;16.52;8.25;;;5.60;71.60;;;;;;2460840;54;20926;-81
2022/01/11 11:46:03;;;;;;;15.95;8.55;;;5.60;71.70;;;;;;2485494;54;20993;-80
2022/01/11 11:48:30;;;;;;;17.33;8.88;;;5.60;72.00;;;;;;2485763;54;21047;-80
2022/01/11 11:51:03;;;;;;;17.62;8.57;;;5.60;72.00;;;;;;2261185;55;20997;-81
2022/01/11 11:53:31;;;;;;;14.32;7.72;;;5.60;71.90;;;;;;2262091;55;20992;-79
2022/01/11 11:57:50;;;;;;;12.75;7.10;;;5.60;71.90;;;;;;2485973;55;20995;-81
2022/01/11 12:00:30;;;;;;;13.25;6.80;;;5.70;71.40;;;;;;2267792;55;20956;-81
2022/01/11 12:03:01;;;;;;;16.30;8.30;;;5.70;72.30;;;;;;2258544;55;21086;-81
2022/01/11 12:05:47;;;;;;;14.75;7.45;;;5.70;72.40;;;;;;2486048;54;21056;-81
2022/01/11 12:10:08;;;;;;;19.95;10.80;;;5.70;72.50;;;;;;2240543;56;20939;-81
2022/01/11 12:12:49;;;;;;;19.95;11.02;;;5.80;72.30;;;;;;2261928;55;20944;-81
2022/01/11 12:15:48;;;;;;;16.80;9.65;;;5.80;73.30;;;;;;2462293;55;20974;-82
2022/01/11 12:18:15;;;;;;;18.17;9.70;;;5.90;73.60;;;;;;2239905;56;21506;-80
2022/01/11 12:20:52;;;;;;;19.85;12.25;;;6.00;74.20;;;;;;2257799;55;20983;-80
2022/01/11 12:26:58;;;;;;;20.50;10.68;;;6.10;74.00;;;;;;2487593;54;20968;-81
2022/01/11 12:29:25;;;;;;;17.35;8.75;;;6.20;72.80;;;;;;2486142;55;21524;-81
2022/01/11 12:32:00;;;;;;;16.55;9.18;;;6.20;73.80;;;;;;2257895;55;21972;-80
2022/01/11 12:35:08;;;;;;;19.17;9.40;;;6.30;73.50;;;;;;2258414;56;20944;-80
2022/01/11 12:37:45;;;;;;;18.15;9.48;;;6.30;72.60;;;;;;2258305;56;21517;-81
2022/01/11 12:40:31;;;;;;;18.90;9.48;;;6.30;72.00;;;;;;2486541;55;21035;-81
2022/01/11 12:43:05;;;;;;;19.62;9.85;;;6.20;72.00;;;;;;2488402;54;20980;-81
2022/01/11 12:47:39;;;;;;;15.65;8.77;;;6.20;71.80;;;;;;2485085;55;21059;-81
2022/01/11 12:50:07;;;;;;;17.23;8.90;;;6.20;70.80;;;;;;2487438;54;21012;-81
2022/01/11 12:52:35;;;;;;;20.67;10.02;;;6.10;71.40;;;;;;2473650;54;20930;-80
2022/01/11 12:55:01;;;;;;;18.37;10.32;;;6.10;71.50;;;;;;2262358;55;20964;-81
2022/01/11 12:57:28;;;;;;;18.12;9.95;;;6.10;71.70;;;;;;2487017;54;21873;-80
2022/01/11 12:59:57;;;;;;;18.30;10.48;;;6.00;71.70;;;;;;2258888;55;20980;-81
2022/01/11 13:02:25;;;;;;;19.20;9.93;;;6.00;71.70;;;;;;2479266;55;20995;-81
2022/01/11 13:04:54;;;;;;;18.20;10.10;;;6.00;71.70;;;;;;2480069;54;21943;-81
2022/01/11 13:07:40;;;;;;;19.60;10.43;;;6.00;72.90;;;;;;2470824;55;22500;-81
2022/01/11 13:10:26;;;;;;;16.35;9.50;;;6.10;73.90;;;;;;2487808;55;21582;-80